Time;durP1;ratioP1;P1;durP2;ratioP2;P2;SDS_P1;SDS_P2;PMS_P1;PMS_P2;Temp;Humidity;BMP_temperature;BMP_pressure;BME280_temperature;BME280_humidity;BME280_pressure;Samples;Min_cycle;Max_cycle;Signal;HPM_P1;HPM_P2
2022/09/19 00:00:24;;;;;;;0.95;0.70;;;16.00;85.30;;;;;;5061531;28;20012;-69
2022/09/19 00:02:49;;;;;;;2.35;0.80;;;16.00;85.40;;;;;;5060022;28;20031;-69
2022/09/19 00:05:15;;;;;;;1.02;0.85;;;16.00;85.30;;;;;;5056910;28;20024;-69
2022/09/19 00:07:42;;;;;;;1.23;1.13;;;16.00;85.40;;;;;;5043075;28;20089;-69
2022/09/19 00:10:09;;;;;;;2.03;0.95;;;16.10;85.40;;;;;;5057850;28;20024;-69
2022/09/19 00:12:34;;;;;;;0.73;0.63;;;16.00;85.40;;;;;;5058033;28;20112;-69
2022/09/19 00:15:00;;;;;;;1.65;0.65;;;16.00;85.50;;;;;;5060523;28;20121;-69
2022/09/19 00:17:26;;;;;;;0.63;0.57;;;16.00;85.40;;;;;;5061130;28;20033;-69
2022/09/19 00:19:51;;;;;;;1.25;0.55;;;16.00;85.50;;;;;;5054929;28;20496;-69
2022/09/19 00:22:17;;;;;;;1.45;0.80;;;16.00;85.50;;;;;;5061403;28;20070;-69
2022/09/19 00:24:45;;;;;;;1.10;0.57;;;16.00;85.50;;;;;;5042763;28;20628;-69
2022/09/19 00:27:18;;;;;;;1.02;0.80;;;16.00;85.50;;;;;;5057628;28;20078;-69
2022/09/19 00:29:43;;;;;;;0.63;0.63;;;16.00;85.50;;;;;;5039600;28;20021;-69
2022/09/19 00:32:12;;;;;;;2.40;0.60;;;16.00;85.50;;;;;;5061298;28;20017;-69
2022/09/19 00:34:40;;;;;;;0.88;0.73;;;16.00;85.50;;;;;;5037735;28;20068;-69
2022/09/19 00:37:06;;;;;;;0.80;0.80;;;16.00;85.50;;;;;;5042865;28;20118;-69
2022/09/19 00:39:31;;;;;;;0.55;0.55;;;16.00;85.50;;;;;;5060022;28;20059;-69
2022/09/19 00:41:58;;;;;;;1.55;0.73;;;16.00;85.50;;;;;;5049420;28;20032;-69
2022/09/19 00:44:23;;;;;;;1.17;0.80;;;16.00;85.50;;;;;;5054390;28;20020;-69
2022/09/19 00:46:54;;;;;;;1.20;0.63;;;16.00;85.60;;;;;;5060073;28;20025;-69
2022/09/19 00:49:21;;;;;;;1.25;0.50;;;16.00;85.60;;;;;;5059915;28;20031;-69
2022/09/19 00:51:50;;;;;;;0.50;0.50;;;16.00;85.60;;;;;;5043036;28;20021;-69
2022/09/19 00:54:32;;;;;;;0.45;0.45;;;16.00;85.60;;;;;;5057867;28;20031;-69
2022/09/19 00:57:00;;;;;;;0.40;0.40;;;16.00;85.70;;;;;;5056909;28;20044;-69
2022/09/19 00:59:29;;;;;;;2.75;0.60;;;16.00;85.70;;;;;;5039810;28;20490;-69
2022/09/19 01:01:57;;;;;;;0.30;0.30;;;16.00;85.70;;;;;;5058632;28;20492;-69
2022/09/19 01:10:39;;;;;;;0.40;0.40;;;16.00;85.70;;;;;;5093096;28;20048;-65
2022/09/19 01:13:31;;;;;;;0.38;0.32;;;16.00;85.70;;;;;;5067916;28;20033;-65
2022/09/19 01:16:20;;;;;;;0.60;0.40;;;16.00;85.70;;;;;;5074044;28;20073;-65
2022/09/19 01:19:04;;;;;;;1.33;0.60;;;15.90;85.60;;;;;;5075848;28;20147;-65
2022/09/19 01:21:39;;;;;;;0.73;0.38;;;15.90;85.60;;;;;;5080550;28;20020;-65
2022/09/19 01:24:20;;;;;;;0.40;0.40;;;16.00;85.70;;;;;;5079453;28;20024;-65
2022/09/19 01:26:51;;;;;;;1.50;0.50;;;16.00;85.70;;;;;;5083890;28;20508;-65
2022/09/19 03:49:39;;;;;;;0.57;0.40;;;15.50;85.00;;;;;;5073748;28;20043;-65
2022/09/19 06:11:06;;;;;;;8.73;0.77;;;15.40;84.80;;;;;;5023849;28;20072;-65
2022/09/19 06:16:18;;;;;;;2.40;0.77;;;15.40;84.90;;;;;;5031151;28;20104;-65
2022/09/19 06:32:20;;;;;;;1.60;1.00;;;15.40;84.80;;;;;;4933591;29;20548;-65
2022/09/19 06:34:46;;;;;;;4.25;1.25;;;15.40;84.90;;;;;;4933379;29;20040;-65
2022/09/19 06:58:16;;;;;;;1.80;0.90;;;15.40;84.90;;;;;;4980541;28;20094;-65
2022/09/19 07:00:44;;;;;;;2.60;1.08;;;15.50;85.00;;;;;;5069792;28;20102;-65
2022/09/19 07:03:15;;;;;;;0.95;0.63;;;15.50;85.70;;;;;;5059643;28;20040;-65
2022/09/19 07:05:42;;;;;;;4.50;1.00;;;15.50;84.90;;;;;;5053379;28;20024;-65
2022/09/19 07:08:10;;;;;;;3.80;1.00;;;15.50;84.90;;;;;;5065904;28;20091;-65
2022/09/19 07:10:36;;;;;;;5.45;1.70;;;15.40;84.90;;;;;;5059880;28;20474;-66
2022/09/19 07:13:04;;;;;;;5.20;2.78;;;15.40;84.80;;;;;;5068132;28;20159;-65
2022/09/19 07:15:33;;;;;;;6.40;3.45;;;15.50;84.90;;;;;;5053128;28;20465;-65
2022/09/19 07:17:58;;;;;;;10.15;2.35;;;15.50;84.90;;;;;;5069729;28;20320;-65
2022/09/19 07:20:26;;;;;;;3.45;1.50;;;15.50;84.90;;;;;;5053405;28;20116;-64
2022/09/19 07:23:05;;;;;;;1.58;1.20;;;15.50;84.90;;;;;;5061472;28;20024;-66
2022/09/19 07:25:32;;;;;;;3.70;1.20;;;15.50;84.90;;;;;;5061003;28;20021;-66
2022/09/19 07:28:03;;;;;;;;;;;15.50;84.90;;;;;;5044824;28;20037;-66
2022/09/19 07:30:29;;;;;;;2.65;1.30;;;15.50;84.90;;;;;;5063171;28;19912;-65
2022/09/19 07:33:05;;;;;;;5.10;1.45;;;15.50;84.90;;;;;;5051049;28;20059;-66
2022/09/19 07:35:35;;;;;;;2.42;1.20;;;15.50;84.90;;;;;;5059062;28;20052;-65
2022/09/19 07:38:01;;;;;;;2.95;1.42;;;15.50;85.00;;;;;;5050721;28;20024;-65
2022/09/19 07:40:28;;;;;;;4.95;1.80;;;15.50;84.90;;;;;;5051529;28;20028;-66
2022/09/19 07:43:13;;;;;;;3.60;0.90;;;15.50;84.90;;;;;;5053652;28;20025;-65
2022/09/19 08:16:31;;;;;;;3.75;1.13;;;15.50;84.90;;;;;;4993553;28;20594;-65
2022/09/19 08:19:00;;;;;;;2.63;1.27;;;15.50;84.90;;;;;;4992184;28;20046;-65
2022/09/19 08:21:26;;;;;;;1.83;0.93;;;15.50;84.90;;;;;;4993960;28;20030;-65
2022/09/19 08:38:45;;;;;;;8.25;1.38;;;15.60;84.90;;;;;;5056832;28;20437;-66
2022/09/19 08:41:28;;;;;;;2.72;1.27;;;15.60;84.90;;;;;;5078636;28;20024;-65
2022/09/19 08:44:07;;;;;;;4.32;1.23;;;15.60;84.90;;;;;;5057473;28;20038;-65
2022/09/19 08:46:47;;;;;;;3.50;1.08;;;15.60;84.90;;;;;;5057285;28;20036;-64
2022/09/19 08:49:38;;;;;;;5.47;1.40;;;15.60;84.90;;;;;;5075763;28;20028;-66
2022/09/19 08:52:22;;;;;;;6.78;1.58;;;15.60;84.90;;;;;;5075425;28;20036;-65
2022/09/19 08:54:51;;;;;;;4.35;1.25;;;15.60;84.90;;;;;;5073371;28;20021;-65
2022/09/19 08:57:25;;;;;;;3.38;0.93;;;15.50;84.90;;;;;;5061639;28;20021;-65
2022/09/19 08:59:56;;;;;;;6.70;1.15;;;15.60;84.90;;;;;;5054369;28;20033;-65
2022/09/19 09:02:41;;;;;;;3.25;1.20;;;15.60;84.90;;;;;;5069644;28;20106;-65
2022/09/19 09:05:17;;;;;;;8.57;1.33;;;15.60;84.90;;;;;;5050337;28;20115;-65
2022/09/19 09:07:52;;;;;;;5.65;1.02;;;15.60;84.90;;;;;;5055021;28;20445;-65
2022/09/19 09:10:29;;;;;;;2.47;1.00;;;15.60;85.00;;;;;;5046858;28;20031;-65
2022/09/19 09:13:38;;;;;;;8.32;1.15;;;15.60;84.90;;;;;;5070537;28;20021;-66
2022/09/19 10:26:14;;;;;;;2.17;1.05;;;16.00;85.20;;;;;;5086433;27;20048;-66
2022/09/19 10:28:59;;;;;;;4.00;1.10;;;16.00;85.20;;;;;;5054814;28;20036;-66
2022/09/19 10:31:33;;;;;;;1.30;0.88;;;16.10;85.30;;;;;;5081959;28;20033;-66
2022/09/19 10:34:04;;;;;;;1.40;0.82;;;16.10;85.20;;;;;;5083107;28;20043;-66
2022/09/19 10:36:34;;;;;;;1.98;0.93;;;16.10;85.30;;;;;;5082399;28;20106;-66
2022/09/19 10:39:13;;;;;;;1.55;0.90;;;16.10;85.20;;;;;;5082827;28;20485;-66
2022/09/19 10:41:41;;;;;;;1.50;0.85;;;16.10;85.90;;;;;;5051403;28;20064;-66
2022/09/19 10:44:24;;;;;;;3.80;1.08;;;16.20;85.30;;;;;;5076168;28;20098;-66
2022/09/19 10:47:03;;;;;;;2.60;0.85;;;16.20;85.30;;;;;;5072564;28;20115;-66
2022/09/19 10:49:46;;;;;;;3.05;0.90;;;16.20;85.30;;;;;;5082367;28;20521;-66
2022/09/19 10:52:30;;;;;;;2.88;1.13;;;16.20;85.20;;;;;;5081291;28;20024;-66
2022/09/19 10:54:58;;;;;;;3.92;0.93;;;16.20;85.20;;;;;;5078908;28;20813;-66
2022/09/19 10:57:40;;;;;;;1.50;0.88;;;16.20;85.20;;;;;;5077610;28;20085;-66
2022/09/19 11:04:00;;;;;;;1.80;0.60;;;16.30;85.30;;;;;;4993106;28;20037;-67
2022/09/19 11:20:40;;;;;;;4.15;0.70;;;16.30;85.30;;;;;;4959114;28;20089;-66
2022/09/19 11:26:18;;;;;;;7.22;0.70;;;16.30;85.40;;;;;;4969193;28;20529;-66
2022/09/19 11:29:18;;;;;;;2.45;0.93;;;16.30;85.30;;;;;;4966048;28;20515;-66
2022/09/19 11:32:12;;;;;;;3.13;0.80;;;16.30;85.40;;;;;;4969349;28;20062;-66
2022/09/19 11:35:07;;;;;;;1.17;0.60;;;16.30;85.50;;;;;;4969121;28;20545;-66
2022/09/19 11:37:56;;;;;;;3.70;0.75;;;16.30;85.50;;;;;;4968164;28;20053;-66
2022/09/19 11:40:33;;;;;;;1.25;0.93;;;16.30;85.50;;;;;;4950038;28;20669;-66
2022/09/19 11:43:13;;;;;;;2.20;0.57;;;16.30;85.50;;;;;;4968390;28;20355;-66
2022/09/19 11:55:58;;;;;;;2.00;0.75;;;16.30;85.40;;;;;;5069561;28;20047;-66
2022/09/19 11:58:46;;;;;;;7.15;1.10;;;16.40;85.40;;;;;;5073867;28;20037;-66
2022/09/19 12:01:35;;;;;;;2.05;1.00;;;16.40;85.40;;;;;;5081797;28;20083;-66
2022/09/19 12:08:05;;;;;;;4.72;1.02;;;16.40;85.50;;;;;;4988215;28;20590;-66
2022/09/19 12:10:43;;;;;;;6.55;1.10;;;16.40;85.50;;;;;;4997260;28;20651;-66
2022/09/19 12:13:31;;;;;;;5.75;0.73;;;16.40;85.60;;;;;;4998560;28;20685;-66
2022/09/19 12:22:31;;;;;;;2.75;0.75;;;16.50;85.70;;;;;;4999760;28;20036;-66
2022/09/19 12:25:19;;;;;;;2.40;0.95;;;16.40;85.60;;;;;;4993959;28;20479;-66
2022/09/19 12:27:49;;;;;;;2.47;0.80;;;16.50;85.70;;;;;;4997094;28;20541;-66
2022/09/19 12:30:18;;;;;;;3.92;0.80;;;16.40;85.60;;;;;;4999484;28;20555;-66
2022/09/19 12:32:55;;;;;;;3.58;0.98;;;16.50;85.70;;;;;;4996624;28;20475;-66
2022/09/19 12:35:52;;;;;;;5.35;1.00;;;16.40;85.50;;;;;;4995464;28;20049;-66
2022/09/19 12:38:28;;;;;;;10.10;1.05;;;16.40;85.50;;;;;;4936933;29;20441;-66
2022/09/19 12:41:06;;;;;;;2.85;1.20;;;16.50;86.40;;;;;;4955418;28;20487;-66
2022/09/19 12:43:50;;;;;;;5.72;1.38;;;16.50;85.60;;;;;;5003032;28;20553;-66
2022/09/19 12:46:43;;;;;;;3.63;0.70;;;16.50;85.60;;;;;;4998040;28;20072;-66
2022/09/19 12:49:35;;;;;;;2.30;0.90;;;16.50;85.70;;;;;;4993408;28;20038;-66
2022/09/19 12:52:10;;;;;;;1.73;0.75;;;16.50;85.60;;;;;;4996076;28;20038;-66
2022/09/19 12:54:58;;;;;;;5.00;0.90;;;16.50;85.50;;;;;;4996928;28;20038;-66
2022/09/19 12:57:47;;;;;;;1.00;0.82;;;16.60;85.50;;;;;;4998487;28;20088;-66
2022/09/19 13:00:13;;;;;;;1.60;0.90;;;16.50;85.50;;;;;;4984325;28;20038;-66
2022/09/19 13:02:46;;;;;;;4.13;0.98;;;16.60;85.70;;;;;;4997104;28;20049;-66
2022/09/19 13:05:33;;;;;;;3.80;1.25;;;16.60;85.70;;;;;;4993818;28;20026;-66
2022/09/19 13:08:36;;;;;;;9.43;1.08;;;16.60;85.80;;;;;;4998348;28;20042;-66
2022/09/19 13:11:13;;;;;;;2.67;0.90;;;16.50;85.70;;;;;;4963366;28;20105;-66
2022/09/19 13:13:57;;;;;;;2.33;1.10;;;16.50;85.60;;;;;;5005957;28;20121;-66
2022/09/19 13:16:31;;;;;;;2.38;1.00;;;16.50;85.50;;;;;;5084009;28;20096;-66
2022/09/19 13:24:52;;;;;;;3.05;1.20;;;16.60;85.50;;;;;;5083589;28;20073;-66
2022/09/19 13:27:20;;;;;;;1.05;0.80;;;16.50;85.40;;;;;;5075315;28;20089;-65
2022/09/19 13:29:48;;;;;;;8.70;1.00;;;16.50;85.50;;;;;;5079648;28;20043;-66
2022/09/19 13:32:54;;;;;;;5.78;1.10;;;16.60;85.70;;;;;;5060435;28;20073;-66
2022/09/19 13:38:58;;;;;;;2.60;1.17;;;16.60;85.70;;;;;;5026720;28;20614;-66
2022/09/19 13:41:41;;;;;;;1.38;0.90;;;16.50;85.60;;;;;;5030094;28;20037;-66
2022/09/19 13:44:28;;;;;;;2.65;1.10;;;16.50;85.60;;;;;;5022451;28;20111;-65
2022/09/19 13:46:54;;;;;;;1.63;0.90;;;16.50;85.60;;;;;;5029420;28;20063;-65
2022/09/19 13:49:26;;;;;;;3.70;0.68;;;16.50;85.60;;;;;;5013760;28;20033;-65
2022/09/19 13:51:56;;;;;;;2.92;1.13;;;16.60;85.70;;;;;;5029585;28;20033;-65
2022/09/19 13:54:24;;;;;;;2.00;1.10;;;16.50;85.50;;;;;;5013343;28;20655;-65
2022/09/19 13:57:02;;;;;;;2.95;1.05;;;16.50;85.60;;;;;;5028306;28;20225;-66
2022/09/19 13:59:39;;;;;;;5.05;1.30;;;16.50;85.60;;;;;;5035756;28;20127;-65
2022/09/19 14:02:10;;;;;;;1.90;0.75;;;16.50;85.50;;;;;;5013171;28;20037;-66
2022/09/19 14:04:52;;;;;;;5.22;1.40;;;16.50;85.60;;;;;;5029642;28;20650;-66
2022/09/19 14:07:24;;;;;;;1.98;0.93;;;16.50;85.50;;;;;;5031448;28;20041;-65
2022/09/19 14:10:06;;;;;;;2.60;0.77;;;16.50;85.60;;;;;;5046330;28;20043;-65
2022/09/19 14:12:38;;;;;;;4.35;1.00;;;16.50;85.50;;;;;;5083555;28;20485;-65
2022/09/19 14:15:40;;;;;;;3.28;1.00;;;16.60;85.60;;;;;;5075566;28;20508;-66
2022/09/19 14:18:25;;;;;;;2.08;0.80;;;16.50;85.60;;;;;;5053438;28;20031;-66
2022/09/19 14:20:54;;;;;;;3.17;1.02;;;16.60;85.70;;;;;;5081395;28;20024;-65
2022/09/19 14:23:23;;;;;;;0.88;0.55;;;16.50;85.50;;;;;;5084050;28;20054;-66
2022/09/19 14:29:38;;;;;;;0.73;0.57;;;16.50;85.50;;;;;;5071488;28;20039;-65
2022/09/19 14:32:20;;;;;;;2.85;0.90;;;16.60;85.60;;;;;;5079944;28;20024;-65
2022/09/19 14:34:47;;;;;;;2.38;0.63;;;16.50;85.50;;;;;;5079949;28;20591;-65
2022/09/19 14:37:50;;;;;;;1.38;0.77;;;16.50;85.50;;;;;;5082449;28;20166;-66
2022/09/19 14:40:38;;;;;;;1.35;0.93;;;16.60;85.50;;;;;;5054646;28;20016;-65
2022/09/19 14:43:39;;;;;;;1.33;0.60;;;16.50;85.50;;;;;;5082280;28;20529;-65
2022/09/19 14:46:20;;;;;;;1.95;0.60;;;16.50;85.40;;;;;;5081185;28;20043;-65
2022/09/19 14:49:04;;;;;;;3.20;0.77;;;16.50;85.40;;;;;;5082525;28;20130;-65
2022/09/19 14:51:49;;;;;;;1.92;1.30;;;16.50;85.50;;;;;;5059595;28;20381;-65
2022/09/19 14:54:24;;;;;;;3.10;1.10;;;16.60;85.50;;;;;;5071954;28;20111;-65
2022/09/19 14:57:03;;;;;;;2.53;1.08;;;16.60;85.40;;;;;;5078526;28;20016;-66
2022/09/19 14:59:31;;;;;;;0.70;0.70;;;16.50;85.30;;;;;;5082138;28;20020;-65
2022/09/19 15:02:19;;;;;;;2.42;0.70;;;16.50;85.30;;;;;;5081122;28;20071;-65
2022/09/19 15:04:49;;;;;;;1.85;0.93;;;16.50;85.30;;;;;;5079076;28;20101;-65
2022/09/19 15:07:15;;;;;;;2.67;0.70;;;16.50;85.40;;;;;;5078017;28;20028;-66
2022/09/19 15:09:41;;;;;;;1.10;0.80;;;16.50;85.30;;;;;;5079206;28;20028;-65
2022/09/19 15:12:33;;;;;;;0.50;0.50;;;16.50;85.30;;;;;;5081660;28;20069;-65
2022/09/19 15:14:59;;;;;;;1.85;0.80;;;16.50;85.30;;;;;;5079688;28;20377;-66
2022/09/19 15:17:34;;;;;;;3.53;1.15;;;16.50;85.30;;;;;;5076838;28;20112;-65
2022/09/19 15:20:02;;;;;;;2.47;1.00;;;16.50;85.40;;;;;;5080536;28;20116;-66
2022/09/19 15:22:32;;;;;;;0.60;0.60;;;16.50;85.40;;;;;;5082493;28;20099;-65
2022/09/19 15:25:05;;;;;;;4.32;0.88;;;16.50;85.40;;;;;;5079468;28;20093;-66
2022/09/19 15:27:34;;;;;;;1.08;0.63;;;16.40;85.30;;;;;;5077808;28;20576;-65
2022/09/19 15:30:20;;;;;;;5.68;0.60;;;16.40;85.30;;;;;;5076610;28;20617;-65
2022/09/19 15:32:49;;;;;;;1.13;0.47;;;16.50;85.30;;;;;;5078322;28;20496;-65
2022/09/19 15:35:16;;;;;;;1.17;0.52;;;16.50;85.30;;;;;;5078611;28;20493;-65
2022/09/19 15:37:45;;;;;;;4.13;0.90;;;16.50;85.40;;;;;;5078108;28;20032;-65
2022/09/19 15:40:16;;;;;;;2.92;0.98;;;16.50;85.40;;;;;;5081010;28;20035;-66
2022/09/19 15:42:43;;;;;;;3.67;0.90;;;16.50;85.40;;;;;;5082068;28;20030;-65
2022/09/19 15:45:37;;;;;;;1.05;0.70;;;16.40;85.30;;;;;;5072100;28;20030;-66
2022/09/19 15:48:17;;;;;;;1.92;0.85;;;16.50;85.30;;;;;;5079465;28;20114;-66
2022/09/19 15:50:46;;;;;;;6.18;1.10;;;16.50;85.40;;;;;;5078282;28;20103;-66
2022/09/19 15:53:20;;;;;;;1.48;0.77;;;16.50;85.40;;;;;;5081100;28;20092;-65
2022/09/19 15:56:18;;;;;;;10.68;0.90;;;16.50;85.40;;;;;;5081375;28;20469;-65
2022/09/19 15:58:50;;;;;;;1.27;0.90;;;16.50;85.40;;;;;;5060302;28;20074;-65
2022/09/19 16:01:19;;;;;;;2.30;0.80;;;16.40;85.20;;;;;;5078851;28;20053;-65
2022/09/19 16:04:10;;;;;;;3.13;0.93;;;16.50;85.30;;;;;;5078350;28;20040;-66
2022/09/19 16:09:39;;;;;;;3.95;1.13;;;16.50;85.30;;;;;;5070663;28;19957;-66
2022/09/19 16:12:33;;;;;;;2.55;1.13;;;16.40;85.20;;;;;;5061211;28;20493;-65
2022/09/19 16:15:29;;;;;;;1.23;1.13;;;16.50;85.30;;;;;;5063790;28;20363;-66
2022/09/19 16:17:55;;;;;;;2.78;1.55;;;16.40;85.20;;;;;;5077325;28;20017;-65
2022/09/19 16:20:37;;;;;;;1.88;0.70;;;16.40;85.30;;;;;;5078694;28;20086;-65
2022/09/19 16:23:16;;;;;;;1.63;0.50;;;16.40;85.30;;;;;;5078869;28;20116;-65
2022/09/19 16:25:59;;;;;;;0.77;0.68;;;16.40;85.20;;;;;;5080642;28;20522;-65
2022/09/19 16:28:32;;;;;;;1.00;0.50;;;16.40;85.20;;;;;;5070399;28;20453;-65
2022/09/19 16:37:46;;;;;;;2.58;0.95;;;16.40;85.10;;;;;;5042716;28;20559;-65
2022/09/19 16:40:25;;;;;;;2.78;0.80;;;16.40;85.10;;;;;;5023745;28;20089;-65
2022/09/19 16:42:51;;;;;;;1.17;0.70;;;16.40;85.00;;;;;;5028021;28;20032;-65
2022/09/19 16:45:21;;;;;;;1.25;0.55;;;16.40;85.00;;;;;;5048309;28;20033;-65
2022/09/19 16:47:48;;;;;;;0.95;0.65;;;16.40;85.00;;;;;;5043234;28;20506;-65
2022/09/19 16:50:17;;;;;;;0.70;0.57;;;16.40;85.00;;;;;;5033310;28;20043;-65
2022/09/19 16:52:49;;;;;;;1.27;0.60;;;16.40;85.00;;;;;;5040333;28;20025;-66
2022/09/19 16:55:47;;;;;;;0.43;0.43;;;16.40;85.00;;;;;;5033262;28;20071;-65
2022/09/19 16:58:15;;;;;;;0.50;0.50;;;16.40;85.00;;;;;;4983685;28;20127;-66
2022/09/19 17:00:44;;;;;;;0.60;0.60;;;16.40;85.10;;;;;;4986281;28;20112;-65
2022/09/19 17:03:11;;;;;;;0.98;0.90;;;16.40;85.10;;;;;;4992771;28;20045;-66
2022/09/19 17:05:38;;;;;;;2.80;0.93;;;16.30;85.00;;;;;;5005899;28;20026;-65
2022/09/19 17:08:04;;;;;;;3.58;0.98;;;16.30;85.10;;;;;;5011653;28;20045;-66
2022/09/19 17:10:30;;;;;;;4.78;1.27;;;16.30;85.10;;;;;;4999310;28;20221;-66
2022/09/19 17:12:57;;;;;;;1.35;1.25;;;16.30;85.10;;;;;;4999597;28;20026;-65
2022/09/19 17:15:41;;;;;;;2.22;0.95;;;16.30;85.10;;;;;;4984705;28;20088;-65
2022/09/19 17:18:07;;;;;;;1.40;0.80;;;16.30;85.10;;;;;;4993155;28;20053;-66
2022/09/19 17:20:34;;;;;;;1.25;1.00;;;16.30;85.20;;;;;;5002461;28;20033;-65
2022/09/19 17:23:01;;;;;;;1.98;1.05;;;16.30;85.10;;;;;;5002599;28;20096;-65
2022/09/19 17:25:47;;;;;;;10.02;1.23;;;16.30;85.20;;;;;;4997836;28;20057;-65
2022/09/19 17:28:16;;;;;;;2.28;0.90;;;16.30;85.20;;;;;;4998981;28;20038;-65
2022/09/19 17:30:44;;;;;;;5.20;1.10;;;16.30;86.00;;;;;;5001143;28;20040;-65
2022/09/19 17:33:12;;;;;;;3.92;1.08;;;16.20;85.20;;;;;;5001353;28;20069;-65
2022/09/19 17:35:38;;;;;;;0.70;0.70;;;16.20;85.20;;;;;;5069823;28;20119;-65
2022/09/19 17:38:04;;;;;;;4.47;0.95;;;16.20;85.30;;;;;;5079804;28;20108;-66
2022/09/19 17:40:33;;;;;;;9.63;1.85;;;16.20;85.30;;;;;;5084763;28;20027;-65
2022/09/19 17:43:01;;;;;;;2.35;1.83;;;16.20;85.30;;;;;;5075012;28;20484;-66
2022/09/19 17:45:31;;;;;;;2.95;1.30;;;16.20;85.40;;;;;;5075736;28;20037;-66
2022/09/19 17:47:58;;;;;;;5.05;2.33;;;16.20;85.30;;;;;;5057651;28;20036;-65
2022/09/19 17:50:24;;;;;;;5.65;1.67;;;16.20;85.40;;;;;;5081238;28;20032;-65
2022/09/19 17:52:50;;;;;;;2.13;1.52;;;16.20;85.40;;;;;;5072686;28;20145;-66
2022/09/19 17:55:16;;;;;;;2.42;1.63;;;16.20;86.20;;;;;;5081092;28;20020;-65
2022/09/19 17:57:42;;;;;;;4.43;1.50;;;16.20;85.40;;;;;;5080644;28;20028;-65
2022/09/19 18:00:08;;;;;;;3.35;1.38;;;16.20;85.40;;;;;;5080211;28;20028;-66
2022/09/19 18:05:22;;;;;;;3.50;2.08;;;16.20;85.50;;;;;;5083571;28;20073;-66
2022/09/19 18:07:53;;;;;;;6.07;1.60;;;16.20;85.50;;;;;;5080255;28;20033;-65
2022/09/19 18:10:19;;;;;;;4.88;2.28;;;16.10;85.40;;;;;;5081679;28;20025;-66
2022/09/19 18:12:44;;;;;;;6.50;2.90;;;16.10;85.50;;;;;;5079583;28;20021;-65
2022/09/19 18:42:37;;;;;;;3.35;1.50;;;16.10;85.80;;;;;;5082477;28;20401;-65
2022/09/19 18:45:05;;;;;;;5.95;1.42;;;16.10;85.80;;;;;;5065493;28;20101;-65
2022/09/19 18:47:36;;;;;;;2.70;1.10;;;16.10;85.80;;;;;;5079237;28;20377;-65
2022/09/19 18:50:12;;;;;;;2.75;1.20;;;16.10;86.30;;;;;;5080624;28;20024;-64
2022/09/19 18:52:37;;;;;;;3.28;1.10;;;16.00;85.80;;;;;;5064865;28;20669;-65
2022/09/19 18:55:03;;;;;;;2.53;0.90;;;16.00;85.80;;;;;;5065452;28;20024;-64
2022/09/19 18:57:29;;;;;;;1.73;1.00;;;16.00;85.80;;;;;;5063094;28;20366;-65
2022/09/19 18:59:55;;;;;;;2.20;1.02;;;16.00;85.80;;;;;;5079979;28;20016;-65
2022/09/19 19:02:22;;;;;;;2.88;1.55;;;16.00;85.80;;;;;;5061699;28;20033;-65
2022/09/19 19:04:48;;;;;;;3.55;1.00;;;16.00;85.90;;;;;;5092324;28;20045;-64
2022/09/19 20:02:21;;;;;;;1.85;1.38;;;15.90;86.00;;;;;;5085814;28;20497;-64
2022/09/19 20:04:48;;;;;;;4.32;1.30;;;16.00;86.20;;;;;;5089874;28;20504;-65
2022/09/19 20:07:14;;;;;;;8.80;3.35;;;16.00;86.20;;;;;;5075043;28;20029;-65
2022/09/19 20:09:40;;;;;;;5.85;2.55;;;15.90;86.10;;;;;;5071448;28;20195;-65
2022/09/19 20:12:06;;;;;;;4.80;2.53;;;15.90;86.20;;;;;;5079415;28;20369;-65
2022/09/19 20:14:31;;;;;;;3.28;1.75;;;15.90;86.10;;;;;;5061058;28;20020;-64
2022/09/19 20:16:59;;;;;;;8.15;3.22;;;15.90;86.10;;;;;;5060092;28;20017;-64
2022/09/19 20:19:25;;;;;;;49.53;16.05;;;15.90;86.10;;;;;;5078214;28;20259;-64
2022/09/19 20:21:51;;;;;;;40.15;14.63;;;15.90;86.90;;;;;;5079358;28;20378;-65
2022/09/19 20:37:45;;;;;;;5.65;2.70;;;15.90;86.20;;;;;;5082322;28;20153;-64
2022/09/19 20:40:11;;;;;;;7.30;3.60;;;15.90;86.20;;;;;;5066851;28;20109;-64
2022/09/19 20:42:37;;;;;;;3.45;2.67;;;15.90;86.30;;;;;;5061078;28;20377;-65
2022/09/19 20:45:02;;;;;;;3.45;1.90;;;15.90;86.30;;;;;;5086829;28;20497;-65
2022/09/19 21:22:41;;;;;;;1.63;1.27;;;15.80;86.40;;;;;;5073033;28;20540;-63
2022/09/19 21:25:07;;;;;;;4.10;1.60;;;15.80;86.40;;;;;;5076078;28;20074;-64
2022/09/19 22:08:25;;;;;;;3.05;1.17;;;15.70;86.50;;;;;;5025806;28;20084;-64
2022/09/19 22:11:01;;;;;;;1.80;1.35;;;15.70;86.50;;;;;;5018645;28;20053;-64
2022/09/19 22:13:28;;;;;;;3.30;1.25;;;15.70;86.40;;;;;;5018333;28;20026;-65
2022/09/19 22:15:58;;;;;;;2.17;1.30;;;15.70;86.40;;;;;;5018798;28;20025;-64
2022/09/19 22:18:24;;;;;;;1.00;0.90;;;15.70;86.40;;;;;;5012438;28;20021;-64
2022/09/19 22:20:51;;;;;;;4.05;1.10;;;15.70;86.40;;;;;;5057988;28;20504;-64
2022/09/19 22:23:17;;;;;;;1.67;0.90;;;15.70;86.40;;;;;;5074550;28;20016;-65
2022/09/19 22:25:43;;;;;;;3.53;1.15;;;15.70;86.40;;;;;;5081769;28;20074;-65
2022/09/19 22:28:14;;;;;;;2.10;1.27;;;15.70;86.40;;;;;;5074896;28;20477;-65
2022/09/19 22:30:39;;;;;;;1.98;1.00;;;15.80;86.50;;;;;;5065667;28;20031;-64
2022/09/19 22:33:05;;;;;;;3.30;1.10;;;15.70;86.40;;;;;;5081449;28;20024;-64
2022/09/19 22:35:31;;;;;;;1.67;0.90;;;15.70;86.50;;;;;;5086225;28;20036;-65
2022/09/19 22:37:57;;;;;;;1.60;1.20;;;15.70;86.50;;;;;;5055543;28;20012;-65
2022/09/19 22:40:23;;;;;;;3.72;1.02;;;15.70;86.50;;;;;;5079906;28;20029;-65
2022/09/19 22:42:49;;;;;;;1.95;1.10;;;15.60;86.50;;;;;;5080530;28;20065;-64
2022/09/19 22:45:15;;;;;;;6.22;1.40;;;15.60;87.20;;;;;;5079983;28;20095;-64
2022/09/19 22:47:42;;;;;;;4.25;0.93;;;15.60;86.40;;;;;;5085216;28;20479;-64
2022/09/19 22:50:08;;;;;;;2.33;0.98;;;15.60;86.40;;;;;;5080812;28;20032;-64
2022/09/19 22:52:35;;;;;;;1.40;1.10;;;15.60;86.40;;;;;;5079929;28;20021;-64
2022/09/19 22:55:01;;;;;;;3.55;1.10;;;15.60;86.40;;;;;;5055156;28;20145;-64
2022/09/19 22:57:27;;;;;;;3.90;0.90;;;15.60;86.40;;;;;;5082916;28;20491;-64
2022/09/19 22:59:52;;;;;;;3.13;1.35;;;15.60;86.40;;;;;;5075350;28;20029;-65
2022/09/19 23:02:18;;;;;;;1.15;1.05;;;15.60;86.40;;;;;;5083423;28;20153;-65
2022/09/19 23:04:44;;;;;;;3.40;1.05;;;15.60;86.40;;;;;;5081600;28;20312;-64
2022/09/19 23:07:10;;;;;;;3.42;1.83;;;15.60;86.40;;;;;;5074436;28;20053;-64
2022/09/19 23:09:36;;;;;;;1.63;1.30;;;15.60;86.40;;;;;;5085465;28;20031;-64
2022/09/19 23:12:01;;;;;;;4.07;1.30;;;15.60;86.40;;;;;;5079697;28;20024;-64
2022/09/19 23:14:27;;;;;;;3.33;1.13;;;15.60;86.30;;;;;;5066280;28;20023;-64
2022/09/19 23:16:53;;;;;;;2.05;1.08;;;15.60;86.40;;;;;;5064118;28;20047;-64
2022/09/19 23:19:26;;;;;;;2.60;1.17;;;15.60;86.40;;;;;;5081612;28;20469;-65
2022/09/19 23:21:54;;;;;;;1.58;1.00;;;15.60;86.40;;;;;;5073587;28;20414;-65
2022/09/19 23:24:22;;;;;;;3.42;1.20;;;15.60;86.40;;;;;;5077276;28;20466;-64
2022/09/19 23:26:50;;;;;;;5.30;1.13;;;15.60;86.50;;;;;;5078450;28;20378;-65
2022/09/19 23:29:16;;;;;;;2.20;1.10;;;15.60;86.40;;;;;;5087826;28;20025;-64
2022/09/19 23:31:41;;;;;;;2.17;1.10;;;15.60;86.40;;;;;;5059538;28;20035;-65
2022/09/19 23:34:07;;;;;;;2.28;1.00;;;15.50;86.40;;;;;;5090396;28;20496;-64
2022/09/19 23:36:34;;;;;;;6.47;1.30;;;15.50;86.30;;;;;;5077578;28;20033;-64
2022/09/19 23:39:00;;;;;;;2.95;1.20;;;15.50;86.20;;;;;;5061312;28;20059;-64
2022/09/19 23:41:27;;;;;;;4.28;1.23;;;15.50;86.30;;;;;;5061107;28;20020;-64
2022/09/19 23:43:53;;;;;;;3.15;1.27;;;15.60;86.30;;;;;;5061621;28;20370;-64
2022/09/19 23:46:26;;;;;;;2.00;1.35;;;15.50;86.30;;;;;;5081097;28;20473;-64
2022/09/19 23:48:53;;;;;;;2.50;1.20;;;15.50;86.20;;;;;;5083253;28;20029;-64
2022/09/19 23:51:23;;;;;;;1.85;1.20;;;15.50;86.20;;;;;;5080877;28;20032;-65
2022/09/19 23:53:51;;;;;;;2.25;1.38;;;15.50;86.20;;;;;;5072907;28;20020;-65
2022/09/19 23:56:18;;;;;;;5.93;1.67;;;15.50;86.20;;;;;;5079570;28;20016;-63
2022/09/19 23:58:44;;;;;;;4.93;1.65;;;15.50;86.20;;;;;;5085178;28;20024;-64
